sensor_id;sensor_type;location;lat;lon;timestamp;pressure;altitude;pressure_sealevel;temperature
13570;BMP180;6856;51.460;7.158;2023-07-13T00:01:25;100360.00;;;23.70
13570;BMP180;6856;51.460;7.158;2023-07-13T00:04:01;100365.00;;;23.70
13570;BMP180;6856;51.460;7.158;2023-07-13T00:06:36;100376.00;;;23.70
13570;BMP180;6856;51.460;7.158;2023-07-13T00:09:10;100375.00;;;23.70
13570;BMP180;6856;51.460;7.158;2023-07-13T00:11:49;100369.00;;;23.60
13570;BMP180;6856;51.460;7.158;2023-07-13T00:14:24;100368.00;;;23.60
13570;BMP180;6856;51.460;7.158;2023-07-13T00:17:00;100371.00;;;23.60
13570;BMP180;6856;51.460;7.158;2023-07-13T00:19:34;100367.00;;;23.60
13570;BMP180;6856;51.460;7.158;2023-07-13T00:22:09;100370.00;;;23.50
13570;BMP180;6856;51.460;7.158;2023-07-13T00:24:43;100369.00;;;23.50
13570;BMP180;6856;51.460;7.158;2023-07-13T00:27:18;100372.00;;;23.50
13570;BMP180;6856;51.460;7.158;2023-07-13T00:29:51;100362.00;;;23.40
13570;BMP180;6856;51.460;7.158;2023-07-13T00:32:25;100367.00;;;23.40
13570;BMP180;6856;51.460;7.158;2023-07-13T00:34:58;100367.00;;;23.40
13570;BMP180;6856;51.460;7.158;2023-07-13T00:37:34;100372.00;;;23.40
13570;BMP180;6856;51.460;7.158;2023-07-13T00:40:11;100366.00;;;23.30
13570;BMP180;6856;51.460;7.158;2023-07-13T00:42:45;100363.00;;;23.30
13570;BMP180;6856;51.460;7.158;2023-07-13T00:48:53;100364.00;;;23.20
13570;BMP180;6856;51.460;7.158;2023-07-13T00:51:33;100361.00;;;23.10
13570;BMP180;6856;51.460;7.158;2023-07-13T00:54:15;100363.00;;;23.10
13570;BMP180;6856;51.460;7.158;2023-07-13T00:56:56;100370.00;;;23.00
13570;BMP180;6856;51.460;7.158;2023-07-13T00:59:33;100370.00;;;23.00
13570;BMP180;6856;51.460;7.158;2023-07-13T01:02:07;100362.00;;;23.00
13570;BMP180;6856;51.460;7.158;2023-07-13T01:04:42;100370.00;;;23.00
13570;BMP180;6856;51.460;7.158;2023-07-13T01:07:17;100369.00;;;22.90
13570;BMP180;6856;51.460;7.158;2023-07-13T01:09:53;100362.00;;;22.80
13570;BMP180;6856;51.460;7.158;2023-07-13T01:12:27;100352.00;;;22.80
13570;BMP180;6856;51.460;7.158;2023-07-13T01:15:05;100366.00;;;22.70
13570;BMP180;6856;51.460;7.158;2023-07-13T01:17:39;100359.00;;;22.70
13570;BMP180;6856;51.460;7.158;2023-07-13T01:20:13;100359.00;;;22.60
13570;BMP180;6856;51.460;7.158;2023-07-13T01:22:49;100349.00;;;22.60
13570;BMP180;6856;51.460;7.158;2023-07-13T01:25:23;100348.00;;;22.50
13570;BMP180;6856;51.460;7.158;2023-07-13T01:27:56;100354.00;;;22.50
13570;BMP180;6856;51.460;7.158;2023-07-13T01:30:31;100355.00;;;22.50
13570;BMP180;6856;51.460;7.158;2023-07-13T01:33:05;100350.00;;;22.50
13570;BMP180;6856;51.460;7.158;2023-07-13T01:35:40;100350.00;;;22.40
13570;BMP180;6856;51.460;7.158;2023-07-13T01:38:19;100353.00;;;22.40
13570;BMP180;6856;51.460;7.158;2023-07-13T01:40:53;100345.00;;;22.40
13570;BMP180;6856;51.460;7.158;2023-07-13T01:43:27;100353.00;;;22.40
13570;BMP180;6856;51.460;7.158;2023-07-13T01:46:01;100356.00;;;22.40
13570;BMP180;6856;51.460;7.158;2023-07-13T01:48:53;100341.00;;;22.40
13570;BMP180;6856;51.460;7.158;2023-07-13T01:51:27;100371.00;;;22.30
13570;BMP180;6856;51.460;7.158;2023-07-13T01:54:02;100358.00;;;22.30
13570;BMP180;6856;51.460;7.158;2023-07-13T01:56:36;100367.00;;;22.30
13570;BMP180;6856;51.460;7.158;2023-07-13T01:59:10;100364.00;;;22.30
13570;BMP180;6856;51.460;7.158;2023-07-13T02:01:43;100372.00;;;22.30
13570;BMP180;6856;51.460;7.158;2023-07-13T02:04:18;100376.00;;;22.20
13570;BMP180;6856;51.460;7.158;2023-07-13T02:06:52;100375.00;;;22.20
13570;BMP180;6856;51.460;7.158;2023-07-13T02:09:28;100377.00;;;22.10
13570;BMP180;6856;51.460;7.158;2023-07-13T02:12:05;100361.00;;;22.10
13570;BMP180;6856;51.460;7.158;2023-07-13T02:14:40;100368.00;;;22.10
13570;BMP180;6856;51.460;7.158;2023-07-13T02:17:14;100362.00;;;22.00
13570;BMP180;6856;51.460;7.158;2023-07-13T02:19:48;100367.00;;;22.00
13570;BMP180;6856;51.460;7.158;2023-07-13T02:22:23;100348.00;;;21.90
13570;BMP180;6856;51.460;7.158;2023-07-13T02:24:58;100361.00;;;21.90
13570;BMP180;6856;51.460;7.158;2023-07-13T02:27:32;100366.00;;;21.90
13570;BMP180;6856;51.460;7.158;2023-07-13T02:30:07;100368.00;;;21.80
13570;BMP180;6856;51.460;7.158;2023-07-13T02:32:41;100374.00;;;21.80
13570;BMP180;6856;51.460;7.158;2023-07-13T02:35:16;100366.00;;;21.70
13570;BMP180;6856;51.460;7.158;2023-07-13T02:37:50;100369.00;;;21.70
13570;BMP180;6856;51.460;7.158;2023-07-13T02:40:25;100359.00;;;21.60
13570;BMP180;6856;51.460;7.158;2023-07-13T02:42:59;100352.00;;;21.60
13570;BMP180;6856;51.460;7.158;2023-07-13T02:45:35;100364.00;;;21.60
13570;BMP180;6856;51.460;7.158;2023-07-13T02:48:10;100364.00;;;21.50
13570;BMP180;6856;51.460;7.158;2023-07-13T02:50:45;100368.00;;;21.50
13570;BMP180;6856;51.460;7.158;2023-07-13T02:53:19;100368.00;;;21.50
13570;BMP180;6856;51.460;7.158;2023-07-13T02:55:54;100374.00;;;21.50
13570;BMP180;6856;51.460;7.158;2023-07-13T02:58:28;100372.00;;;21.50
13570;BMP180;6856;51.460;7.158;2023-07-13T03:01:07;100379.00;;;21.50
13570;BMP180;6856;51.460;7.158;2023-07-13T03:03:41;100372.00;;;21.40
13570;BMP180;6856;51.460;7.158;2023-07-13T03:06:16;100368.00;;;21.40
13570;BMP180;6856;51.460;7.158;2023-07-13T03:08:50;100376.00;;;21.30
13570;BMP180;6856;51.460;7.158;2023-07-13T03:11:26;100375.00;;;21.30
13570;BMP180;6856;51.460;7.158;2023-07-13T03:14:00;100370.00;;;21.20
13570;BMP180;6856;51.460;7.158;2023-07-13T03:16:34;100376.00;;;21.20
13570;BMP180;6856;51.460;7.158;2023-07-13T03:19:08;100369.00;;;21.20
13570;BMP180;6856;51.460;7.158;2023-07-13T03:21:42;100372.00;;;21.20
13570;BMP180;6856;51.460;7.158;2023-07-13T03:24:15;100377.00;;;21.20
13570;BMP180;6856;51.460;7.158;2023-07-13T03:26:51;100372.00;;;21.20
13570;BMP180;6856;51.460;7.158;2023-07-13T03:29:25;100384.00;;;21.20
13570;BMP180;6856;51.460;7.158;2023-07-13T03:31:59;100375.00;;;21.20
13570;BMP180;6856;51.460;7.158;2023-07-13T03:34:33;100383.00;;;21.20
13570;BMP180;6856;51.460;7.158;2023-07-13T03:37:07;100384.00;;;21.20
13570;BMP180;6856;51.460;7.158;2023-07-13T03:39:41;100379.00;;;21.10
13570;BMP180;6856;51.460;7.158;2023-07-13T03:42:16;100386.00;;;21.10
13570;BMP180;6856;51.460;7.158;2023-07-13T03:44:50;100393.00;;;21.10
13570;BMP180;6856;51.460;7.158;2023-07-13T03:47:24;100392.00;;;21.10
13570;BMP180;6856;51.460;7.158;2023-07-13T03:49:58;100394.00;;;21.10
13570;BMP180;6856;51.460;7.158;2023-07-13T03:52:35;100397.00;;;21.00
13570;BMP180;6856;51.460;7.158;2023-07-13T03:55:09;100408.00;;;21.00
13570;BMP180;6856;51.460;7.158;2023-07-13T03:57:45;100403.00;;;21.00
13570;BMP180;6856;51.460;7.158;2023-07-13T04:00:19;100404.00;;;21.00
13570;BMP180;6856;51.460;7.158;2023-07-13T04:02:53;100412.00;;;21.00
13570;BMP180;6856;51.460;7.158;2023-07-13T04:05:27;100405.00;;;21.00
13570;BMP180;6856;51.460;7.158;2023-07-13T04:08:00;100416.00;;;20.90
13570;BMP180;6856;51.460;7.158;2023-07-13T04:10:34;100414.00;;;20.90
13570;BMP180;6856;51.460;7.158;2023-07-13T04:13:09;100427.00;;;20.90
13570;BMP180;6856;51.460;7.158;2023-07-13T04:15:43;100424.00;;;20.90
13570;BMP180;6856;51.460;7.158;2023-07-13T04:18:17;100426.00;;;20.90
13570;BMP180;6856;51.460;7.158;2023-07-13T04:20:52;100423.00;;;20.90
13570;BMP180;6856;51.460;7.158;2023-07-13T04:23:25;100421.00;;;20.90
13570;BMP180;6856;51.460;7.158;2023-07-13T04:25:59;100415.00;;;20.80
13570;BMP180;6856;51.460;7.158;2023-07-13T04:28:35;100412.00;;;20.80
13570;BMP180;6856;51.460;7.158;2023-07-13T04:31:08;100417.00;;;20.80
13570;BMP180;6856;51.460;7.158;2023-07-13T04:33:43;100426.00;;;20.80
13570;BMP180;6856;51.460;7.158;2023-07-13T04:36:19;100420.00;;;20.70
13570;BMP180;6856;51.460;7.158;2023-07-13T04:38:53;100434.00;;;20.70
13570;BMP180;6856;51.460;7.158;2023-07-13T04:41:28;100436.00;;;20.70
13570;BMP180;6856;51.460;7.158;2023-07-13T04:44:03;100429.00;;;20.70
13570;BMP180;6856;51.460;7.158;2023-07-13T04:46:38;100436.00;;;20.70
13570;BMP180;6856;51.460;7.158;2023-07-13T04:49:12;100437.00;;;20.70
13570;BMP180;6856;51.460;7.158;2023-07-13T04:51:45;100438.00;;;20.70
13570;BMP180;6856;51.460;7.158;2023-07-13T04:54:19;100442.00;;;20.70
13570;BMP180;6856;51.460;7.158;2023-07-13T04:56:54;100427.00;;;20.70
13570;BMP180;6856;51.460;7.158;2023-07-13T04:59:29;100439.00;;;20.60
13570;BMP180;6856;51.460;7.158;2023-07-13T05:02:04;100436.00;;;20.60
13570;BMP180;6856;51.460;7.158;2023-07-13T05:04:38;100431.00;;;20.60
13570;BMP180;6856;51.460;7.158;2023-07-13T05:07:12;100439.00;;;20.60
13570;BMP180;6856;51.460;7.158;2023-07-13T05:09:46;100447.00;;;20.60
13570;BMP180;6856;51.460;7.158;2023-07-13T05:12:19;100444.00;;;20.60
13570;BMP180;6856;51.460;7.158;2023-07-13T05:14:55;100416.00;;;20.60
13570;BMP180;6856;51.460;7.158;2023-07-13T05:17:29;100446.00;;;20.60
13570;BMP180;6856;51.460;7.158;2023-07-13T05:20:04;100447.00;;;20.60
13570;BMP180;6856;51.460;7.158;2023-07-13T05:22:38;100447.00;;;20.60
13570;BMP180;6856;51.460;7.158;2023-07-13T05:25:12;100449.00;;;20.70
13570;BMP180;6856;51.460;7.158;2023-07-13T05:27:47;100453.00;;;20.70
13570;BMP180;6856;51.460;7.158;2023-07-13T05:30:22;100457.00;;;20.70
13570;BMP180;6856;51.460;7.158;2023-07-13T05:32:56;100468.00;;;20.70
13570;BMP180;6856;51.460;7.158;2023-07-13T05:35:30;100464.00;;;20.70
13570;BMP180;6856;51.460;7.158;2023-07-13T05:38:03;100456.00;;;20.70
13570;BMP180;6856;51.460;7.158;2023-07-13T05:40:37;100452.00;;;20.70
13570;BMP180;6856;51.460;7.158;2023-07-13T05:43:12;100469.00;;;20.70
13570;BMP180;6856;51.460;7.158;2023-07-13T05:45:49;100472.00;;;20.70
13570;BMP180;6856;51.460;7.158;2023-07-13T05:48:24;100469.00;;;20.70
13570;BMP180;6856;51.460;7.158;2023-07-13T05:50:58;100464.00;;;20.70
13570;BMP180;6856;51.460;7.158;2023-07-13T05:53:33;100468.00;;;20.70
13570;BMP180;6856;51.460;7.158;2023-07-13T05:56:08;100468.00;;;20.70
13570;BMP180;6856;51.460;7.158;2023-07-13T05:58:43;100469.00;;;20.70
13570;BMP180;6856;51.460;7.158;2023-07-13T06:01:18;100471.00;;;20.70
13570;BMP180;6856;51.460;7.158;2023-07-13T06:03:52;100488.00;;;20.80
13570;BMP180;6856;51.460;7.158;2023-07-13T06:06:27;100485.00;;;20.70
13570;BMP180;6856;51.460;7.158;2023-07-13T06:09:01;100482.00;;;20.80
13570;BMP180;6856;51.460;7.158;2023-07-13T06:11:35;100501.00;;;20.80
13570;BMP180;6856;51.460;7.158;2023-07-13T06:14:09;100494.00;;;20.80
13570;BMP180;6856;51.460;7.158;2023-07-13T06:16:45;100493.00;;;20.90
13570;BMP180;6856;51.460;7.158;2023-07-13T06:19:18;100493.00;;;20.90
13570;BMP180;6856;51.460;7.158;2023-07-13T06:21:52;100494.00;;;20.90
13570;BMP180;6856;51.460;7.158;2023-07-13T06:24:28;100494.00;;;20.80
13570;BMP180;6856;51.460;7.158;2023-07-13T06:27:03;100492.00;;;20.90
13570;BMP180;6856;51.460;7.158;2023-07-13T06:29:37;100497.00;;;20.90
13570;BMP180;6856;51.460;7.158;2023-07-13T06:32:13;100493.00;;;21.00
13570;BMP180;6856;51.460;7.158;2023-07-13T06:34:47;100504.00;;;21.00
13570;BMP180;6856;51.460;7.158;2023-07-13T06:37:21;100503.00;;;21.10
13570;BMP180;6856;51.460;7.158;2023-07-13T06:39:55;100495.00;;;21.10
13570;BMP180;6856;51.460;7.158;2023-07-13T06:42:29;100509.00;;;21.20
13570;BMP180;6856;51.460;7.158;2023-07-13T06:45:04;100498.00;;;21.20
13570;BMP180;6856;51.460;7.158;2023-07-13T06:47:40;100509.00;;;21.30
13570;BMP180;6856;51.460;7.158;2023-07-13T06:50:14;100509.00;;;21.30
13570;BMP180;6856;51.460;7.158;2023-07-13T06:52:47;100517.00;;;21.40
13570;BMP180;6856;51.460;7.158;2023-07-13T06:55:21;100519.00;;;21.40
13570;BMP180;6856;51.460;7.158;2023-07-13T06:57:55;100518.00;;;21.40
13570;BMP180;6856;51.460;7.158;2023-07-13T07:00:29;100517.00;;;21.50
13570;BMP180;6856;51.460;7.158;2023-07-13T07:03:05;100521.00;;;21.60
13570;BMP180;6856;51.460;7.158;2023-07-13T07:05:39;100522.00;;;21.60
13570;BMP180;6856;51.460;7.158;2023-07-13T07:08:13;100521.00;;;21.70
13570;BMP180;6856;51.460;7.158;2023-07-13T07:10:48;100526.00;;;21.80
13570;BMP180;6856;51.460;7.158;2023-07-13T07:13:26;100527.00;;;21.90
13570;BMP180;6856;51.460;7.158;2023-07-13T07:16:02;100524.00;;;22.00
13570;BMP180;6856;51.460;7.158;2023-07-13T07:18:37;100516.00;;;22.00
13570;BMP180;6856;51.460;7.158;2023-07-13T07:21:12;100525.00;;;22.10
13570;BMP180;6856;51.460;7.158;2023-07-13T07:23:46;100535.00;;;22.10
13570;BMP180;6856;51.460;7.158;2023-07-13T07:26:20;100539.00;;;22.20
13570;BMP180;6856;51.460;7.158;2023-07-13T07:28:59;100534.00;;;22.30
13570;BMP180;6856;51.460;7.158;2023-07-13T07:31:35;100532.00;;;22.30
13570;BMP180;6856;51.460;7.158;2023-07-13T07:34:14;100539.00;;;22.40
13570;BMP180;6856;51.460;7.158;2023-07-13T07:36:47;100540.00;;;22.40
13570;BMP180;6856;51.460;7.158;2023-07-13T07:39:24;100523.00;;;22.50
13570;BMP180;6856;51.460;7.158;2023-07-13T07:41:58;100539.00;;;22.50
13570;BMP180;6856;51.460;7.158;2023-07-13T07:44:32;100539.00;;;22.50
13570;BMP180;6856;51.460;7.158;2023-07-13T07:47:07;100538.00;;;22.60
13570;BMP180;6856;51.460;7.158;2023-07-13T07:49:43;100543.00;;;22.60
13570;BMP180;6856;51.460;7.158;2023-07-13T07:52:17;100536.00;;;22.70
13570;BMP180;6856;51.460;7.158;2023-07-13T07:54:51;100547.00;;;22.70
13570;BMP180;6856;51.460;7.158;2023-07-13T07:57:27;100531.00;;;22.80
13570;BMP180;6856;51.460;7.158;2023-07-13T08:00:09;100544.00;;;22.80
13570;BMP180;6856;51.460;7.158;2023-07-13T08:02:46;100550.00;;;22.90
13570;BMP180;6856;51.460;7.158;2023-07-13T08:05:25;100537.00;;;23.00
13570;BMP180;6856;51.460;7.158;2023-07-13T08:08:14;100540.00;;;23.10
13570;BMP180;6856;51.460;7.158;2023-07-13T08:10:48;100549.00;;;23.10
13570;BMP180;6856;51.460;7.158;2023-07-13T08:13:22;100550.00;;;23.20
13570;BMP180;6856;51.460;7.158;2023-07-13T08:15:55;100542.00;;;23.30
13570;BMP180;6856;51.460;7.158;2023-07-13T08:18:29;100540.00;;;23.40
13570;BMP180;6856;51.460;7.158;2023-07-13T08:21:06;100545.00;;;23.50
13570;BMP180;6856;51.460;7.158;2023-07-13T08:23:41;100541.00;;;23.60
13570;BMP180;6856;51.460;7.158;2023-07-13T08:26:15;100546.00;;;23.70
13570;BMP180;6856;51.460;7.158;2023-07-13T08:28:48;100534.00;;;23.70
13570;BMP180;6856;51.460;7.158;2023-07-13T08:31:22;100542.00;;;23.70
13570;BMP180;6856;51.460;7.158;2023-07-13T08:33:57;100541.00;;;23.80
13570;BMP180;6856;51.460;7.158;2023-07-13T08:36:32;100541.00;;;23.80
13570;BMP180;6856;51.460;7.158;2023-07-13T08:39:05;100544.00;;;23.90
13570;BMP180;6856;51.460;7.158;2023-07-13T08:41:39;100542.00;;;24.00
13570;BMP180;6856;51.460;7.158;2023-07-13T08:44:25;100544.00;;;24.10
13570;BMP180;6856;51.460;7.158;2023-07-13T08:47:03;100541.00;;;24.10
13570;BMP180;6856;51.460;7.158;2023-07-13T08:49:38;100549.00;;;24.20
13570;BMP180;6856;51.460;7.158;2023-07-13T08:52:27;100545.00;;;24.30
13570;BMP180;6856;51.460;7.158;2023-07-13T08:55:12;100544.00;;;24.40
13570;BMP180;6856;51.460;7.158;2023-07-13T08:57:56;100543.00;;;24.40
13570;BMP180;6856;51.460;7.158;2023-07-13T09:00:44;100536.00;;;24.50
13570;BMP180;6856;51.460;7.158;2023-07-13T09:03:28;100533.00;;;24.60
13570;BMP180;6856;51.460;7.158;2023-07-13T09:06:06;100533.00;;;24.60
13570;BMP180;6856;51.460;7.158;2023-07-13T09:08:59;100534.00;;;24.60
13570;BMP180;6856;51.460;7.158;2023-07-13T09:11:46;100541.00;;;24.60
13570;BMP180;6856;51.460;7.158;2023-07-13T09:14:38;100539.00;;;24.60
13570;BMP180;6856;51.460;7.158;2023-07-13T09:17:20;100540.00;;;24.60
13570;BMP180;6856;51.460;7.158;2023-07-13T09:20:02;100532.00;;;24.60
13570;BMP180;6856;51.460;7.158;2023-07-13T09:22:39;100545.00;;;24.70
13570;BMP180;6856;51.460;7.158;2023-07-13T09:25:27;100546.00;;;24.80
13570;BMP180;6856;51.460;7.158;2023-07-13T09:28:18;100543.00;;;24.90
13570;BMP180;6856;51.460;7.158;2023-07-13T09:31:03;100544.00;;;25.00
13570;BMP180;6856;51.460;7.158;2023-07-13T09:33:38;100542.00;;;25.00
13570;BMP180;6856;51.460;7.158;2023-07-13T09:36:19;100532.00;;;25.00
13570;BMP180;6856;51.460;7.158;2023-07-13T09:39:02;100533.00;;;25.10
13570;BMP180;6856;51.460;7.158;2023-07-13T09:41:48;100543.00;;;25.20
13570;BMP180;6856;51.460;7.158;2023-07-13T09:44:29;100550.00;;;25.30
13570;BMP180;6856;51.460;7.158;2023-07-13T09:47:17;100562.00;;;25.40
13570;BMP180;6856;51.460;7.158;2023-07-13T09:49:56;100550.00;;;25.50
13570;BMP180;6856;51.460;7.158;2023-07-13T09:52:42;100551.00;;;25.60
13570;BMP180;6856;51.460;7.158;2023-07-13T09:55:28;100560.00;;;25.70
13570;BMP180;6856;51.460;7.158;2023-07-13T09:58:12;100555.00;;;25.70
13570;BMP180;6856;51.460;7.158;2023-07-13T10:00:55;100554.00;;;25.80
13570;BMP180;6856;51.460;7.158;2023-07-13T10:03:33;100553.00;;;25.80
13570;BMP180;6856;51.460;7.158;2023-07-13T10:06:14;100566.00;;;25.80
13570;BMP180;6856;51.460;7.158;2023-07-13T10:08:50;100561.00;;;25.80
13570;BMP180;6856;51.460;7.158;2023-07-13T10:11:28;100564.00;;;25.80
13570;BMP180;6856;51.460;7.158;2023-07-13T10:14:15;100562.00;;;25.80
13570;BMP180;6856;51.460;7.158;2023-07-13T10:16:52;100570.00;;;25.80
13570;BMP180;6856;51.460;7.158;2023-07-13T10:19:34;100570.00;;;25.80
13570;BMP180;6856;51.460;7.158;2023-07-13T10:22:20;100558.00;;;25.90
13570;BMP180;6856;51.460;7.158;2023-07-13T10:24:56;100562.00;;;25.90
13570;BMP180;6856;51.460;7.158;2023-07-13T10:27:35;100554.00;;;26.00
13570;BMP180;6856;51.460;7.158;2023-07-13T10:30:15;100572.00;;;26.00
13570;BMP180;6856;51.460;7.158;2023-07-13T10:32:52;100565.00;;;26.00
13570;BMP180;6856;51.460;7.158;2023-07-13T10:35:29;100554.00;;;26.00
13570;BMP180;6856;51.460;7.158;2023-07-13T10:38:06;100572.00;;;26.00
13570;BMP180;6856;51.460;7.158;2023-07-13T10:40:55;100573.00;;;25.90
13570;BMP180;6856;51.460;7.158;2023-07-13T10:43:35;100569.00;;;25.90
13570;BMP180;6856;51.460;7.158;2023-07-13T10:46:15;100572.00;;;25.90
13570;BMP180;6856;51.460;7.158;2023-07-13T10:48:59;100578.00;;;25.90
13570;BMP180;6856;51.460;7.158;2023-07-13T10:51:37;100581.00;;;25.90
13570;BMP180;6856;51.460;7.158;2023-07-13T10:54:19;100579.00;;;25.90
13570;BMP180;6856;51.460;7.158;2023-07-13T10:57:16;100576.00;;;25.90
13570;BMP180;6856;51.460;7.158;2023-07-13T11:00:15;100593.00;;;26.00
13570;BMP180;6856;51.460;7.158;2023-07-13T11:02:59;100595.00;;;26.00
13570;BMP180;6856;51.460;7.158;2023-07-13T11:05:34;100591.00;;;26.00
13570;BMP180;6856;51.460;7.158;2023-07-13T11:08:20;100590.00;;;26.00
13570;BMP180;6856;51.460;7.158;2023-07-13T11:10:56;100583.00;;;26.10
13570;BMP180;6856;51.460;7.158;2023-07-13T11:16:38;100576.00;;;26.10
13570;BMP180;6856;51.460;7.158;2023-07-13T11:19:38;100579.00;;;26.10
13570;BMP180;6856;51.460;7.158;2023-07-13T11:22:25;100592.00;;;26.20
13570;BMP180;6856;51.460;7.158;2023-07-13T11:25:21;100587.00;;;26.30
13570;BMP180;6856;51.460;7.158;2023-07-13T11:28:25;100578.00;;;26.40
13570;BMP180;6856;51.460;7.158;2023-07-13T11:31:14;100569.00;;;26.50
13570;BMP180;6856;51.460;7.158;2023-07-13T11:33:53;100588.00;;;26.50
13570;BMP180;6856;51.460;7.158;2023-07-13T11:36:39;100588.00;;;26.50
13570;BMP180;6856;51.460;7.158;2023-07-13T11:39:21;100592.00;;;26.50
13570;BMP180;6856;51.460;7.158;2023-07-13T11:42:00;100582.00;;;26.40
13570;BMP180;6856;51.460;7.158;2023-07-13T11:44:42;100569.00;;;26.40
13570;BMP180;6856;51.460;7.158;2023-07-13T11:47:39;100566.00;;;26.40
13570;BMP180;6856;51.460;7.158;2023-07-13T11:50:20;100562.00;;;26.40
13570;BMP180;6856;51.460;7.158;2023-07-13T11:52:58;100568.00;;;26.40
13570;BMP180;6856;51.460;7.158;2023-07-13T11:55:38;100560.00;;;26.50
13570;BMP180;6856;51.460;7.158;2023-07-13T11:58:17;100561.00;;;26.60
13570;BMP180;6856;51.460;7.158;2023-07-13T12:00:53;100557.00;;;26.70
13570;BMP180;6856;51.460;7.158;2023-07-13T12:03:29;100569.00;;;26.80
13570;BMP180;6856;51.460;7.158;2023-07-13T12:06:06;100576.00;;;26.80
13570;BMP180;6856;51.460;7.158;2023-07-13T12:09:02;100563.00;;;26.90
13570;BMP180;6856;51.460;7.158;2023-07-13T12:11:37;100557.00;;;27.00
13570;BMP180;6856;51.460;7.158;2023-07-13T12:14:15;100559.00;;;27.10
13570;BMP180;6856;51.460;7.158;2023-07-13T12:16:49;100558.00;;;27.20
13570;BMP180;6856;51.460;7.158;2023-07-13T12:19:27;100544.00;;;27.20
13570;BMP180;6856;51.460;7.158;2023-07-13T12:22:02;100556.00;;;27.30
13570;BMP180;6856;51.460;7.158;2023-07-13T12:24:38;100556.00;;;27.30
13570;BMP180;6856;51.460;7.158;2023-07-13T12:27:21;100553.00;;;27.40
13570;BMP180;6856;51.460;7.158;2023-07-13T12:30:00;100555.00;;;27.40
13570;BMP180;6856;51.460;7.158;2023-07-13T12:32:34;100556.00;;;27.40
13570;BMP180;6856;51.460;7.158;2023-07-13T12:35:16;100557.00;;;27.40
13570;BMP180;6856;51.460;7.158;2023-07-13T12:37:54;100548.00;;;27.40
13570;BMP180;6856;51.460;7.158;2023-07-13T12:40:34;100560.00;;;27.40
13570;BMP180;6856;51.460;7.158;2023-07-13T12:43:12;100550.00;;;27.40
13570;BMP180;6856;51.460;7.158;2023-07-13T12:45:59;100546.00;;;27.40
13570;BMP180;6856;51.460;7.158;2023-07-13T12:48:41;100552.00;;;27.50
13570;BMP180;6856;51.460;7.158;2023-07-13T12:51:27;100551.00;;;27.50
13570;BMP180;6856;51.460;7.158;2023-07-13T12:54:13;100562.00;;;27.60
13570;BMP180;6856;51.460;7.158;2023-07-13T12:56:53;100559.00;;;27.50
13570;BMP180;6856;51.460;7.158;2023-07-13T12:59:31;100561.00;;;27.60
13570;BMP180;6856;51.460;7.158;2023-07-13T13:02:30;100566.00;;;27.60
13570;BMP180;6856;51.460;7.158;2023-07-13T13:05:12;100560.00;;;27.60
13570;BMP180;6856;51.460;7.158;2023-07-13T13:07:47;100562.00;;;27.60
13570;BMP180;6856;51.460;7.158;2023-07-13T13:10:21;100562.00;;;27.60
13570;BMP180;6856;51.460;7.158;2023-07-13T13:12:56;100568.00;;;27.60
13570;BMP180;6856;51.460;7.158;2023-07-13T13:15:31;100564.00;;;27.50
13570;BMP180;6856;51.460;7.158;2023-07-13T13:18:17;100560.00;;;27.50
13570;BMP180;6856;51.460;7.158;2023-07-13T13:20:52;100581.00;;;27.50
13570;BMP180;6856;51.460;7.158;2023-07-13T13:23:26;100589.00;;;27.40
13570;BMP180;6856;51.460;7.158;2023-07-13T13:26:01;100597.00;;;27.40
13570;BMP180;6856;51.460;7.158;2023-07-13T13:28:37;100600.00;;;27.30
13570;BMP180;6856;51.460;7.158;2023-07-13T13:31:11;100607.00;;;27.20
13570;BMP180;6856;51.460;7.158;2023-07-13T13:33:46;100624.00;;;27.10
13570;BMP180;6856;51.460;7.158;2023-07-13T13:36:22;100626.00;;;27.00
13570;BMP180;6856;51.460;7.158;2023-07-13T13:38:57;100640.00;;;26.90
13570;BMP180;6856;51.460;7.158;2023-07-13T13:41:31;100640.00;;;26.80
13570;BMP180;6856;51.460;7.158;2023-07-13T13:44:10;100644.00;;;26.70
13570;BMP180;6856;51.460;7.158;2023-07-13T13:46:46;100632.00;;;26.60
13570;BMP180;6856;51.460;7.158;2023-07-13T13:49:23;100634.00;;;26.60
13570;BMP180;6856;51.460;7.158;2023-07-13T13:51:58;100621.00;;;26.60
13570;BMP180;6856;51.460;7.158;2023-07-13T13:54:32;100622.00;;;26.50
13570;BMP180;6856;51.460;7.158;2023-07-13T13:57:08;100631.00;;;26.50
13570;BMP180;6856;51.460;7.158;2023-07-13T13:59:46;100629.00;;;26.50
13570;BMP180;6856;51.460;7.158;2023-07-13T14:02:26;100626.00;;;26.50
13570;BMP180;6856;51.460;7.158;2023-07-13T14:05:03;100619.00;;;26.50
13570;BMP180;6856;51.460;7.158;2023-07-13T14:07:38;100618.00;;;26.50
13570;BMP180;6856;51.460;7.158;2023-07-13T14:10:15;100619.00;;;26.60
13570;BMP180;6856;51.460;7.158;2023-07-13T14:12:53;100618.00;;;26.60
13570;BMP180;6856;51.460;7.158;2023-07-13T14:15:30;100624.00;;;26.60
13570;BMP180;6856;51.460;7.158;2023-07-13T14:18:04;100623.00;;;26.70
13570;BMP180;6856;51.460;7.158;2023-07-13T14:20:38;100620.00;;;26.70
13570;BMP180;6856;51.460;7.158;2023-07-13T14:23:13;100624.00;;;26.70
13570;BMP180;6856;51.460;7.158;2023-07-13T14:25:48;100635.00;;;26.70
13570;BMP180;6856;51.460;7.158;2023-07-13T14:28:25;100634.00;;;26.70
13570;BMP180;6856;51.460;7.158;2023-07-13T14:31:00;100647.00;;;26.70
13570;BMP180;6856;51.460;7.158;2023-07-13T14:33:34;100664.00;;;26.70
13570;BMP180;6856;51.460;7.158;2023-07-13T14:36:25;100657.00;;;26.60
13570;BMP180;6856;51.460;7.158;2023-07-13T14:39:11;100646.00;;;26.60
13570;BMP180;6856;51.460;7.158;2023-07-13T14:41:50;100642.00;;;26.60
13570;BMP180;6856;51.460;7.158;2023-07-13T14:44:27;100639.00;;;26.50
13570;BMP180;6856;51.460;7.158;2023-07-13T14:47:06;100645.00;;;26.50
13570;BMP180;6856;51.460;7.158;2023-07-13T14:49:43;100644.00;;;26.50
13570;BMP180;6856;51.460;7.158;2023-07-13T14:52:22;100650.00;;;26.60
13570;BMP180;6856;51.460;7.158;2023-07-13T14:54:59;100645.00;;;26.60
13570;BMP180;6856;51.460;7.158;2023-07-13T14:57:32;100640.00;;;26.60
13570;BMP180;6856;51.460;7.158;2023-07-13T15:00:14;100640.00;;;26.60
13570;BMP180;6856;51.460;7.158;2023-07-13T15:02:53;100628.00;;;26.60
13570;BMP180;6856;51.460;7.158;2023-07-13T15:05:30;100623.00;;;26.60
13570;BMP180;6856;51.460;7.158;2023-07-13T15:08:04;100622.00;;;26.60
13570;BMP180;6856;51.460;7.158;2023-07-13T15:10:38;100623.00;;;26.60
13570;BMP180;6856;51.460;7.158;2023-07-13T15:13:17;100620.00;;;26.70